createdAt,value
2023-05-28T00:02:10.699Z,56.81
2023-05-28T00:04:38.585Z,56.90
2023-05-28T00:07:08.196Z,57.47
2023-05-28T00:09:36.031Z,57.70
2023-05-28T00:12:04.786Z,58.14
2023-05-28T00:14:32.663Z,58.73
2023-05-28T00:17:00.458Z,59.68
2023-05-28T00:19:28.341Z,59.85
2023-05-28T00:21:56.140Z,62.50
2023-05-28T00:24:24.068Z,64.76
2023-05-28T00:26:51.970Z,64.28
2023-05-28T00:29:19.849Z,62.86
2023-05-28T00:31:47.738Z,59.33
2023-05-28T00:34:15.830Z,57.17
2023-05-28T00:36:43.896Z,56.69
2023-05-28T00:39:11.929Z,56.47
2023-05-28T00:41:41.900Z,57.60
2023-05-28T00:44:13.532Z,57.33
2023-05-28T00:46:44.594Z,58.49
2023-05-28T00:49:14.046Z,59.64
2023-05-28T00:51:42.427Z,59.57
2023-05-28T00:54:10.544Z,59.87
2023-05-28T00:56:38.752Z,60.16
2023-05-28T00:59:07.221Z,62.31
2023-05-28T01:01:36.809Z,65.51
2023-05-28T01:04:05.146Z,65.32
2023-05-28T01:06:33.359Z,64.81
2023-05-28T01:09:01.361Z,64.45
2023-05-28T01:11:29.836Z,63.56
2023-05-28T01:13:57.802Z,59.49
2023-05-28T01:16:28.894Z,55.15
2023-05-28T01:18:57.824Z,55.07
2023-05-28T01:21:29.338Z,56.45
2023-05-28T01:24:00.227Z,57.21
2023-05-28T01:26:30.280Z,58.25
2023-05-28T01:28:59.034Z,59.62
2023-05-28T01:31:26.935Z,59.31
2023-05-28T01:33:54.929Z,59.54
2023-05-28T01:36:33.256Z,63.17
2023-05-28T01:39:03.566Z,65.97
2023-05-28T01:41:32.128Z,64.44
2023-05-28T01:44:01.327Z,59.61
2023-05-28T01:46:30.163Z,56.36
2023-05-28T01:48:58.146Z,56.29
2023-05-28T01:51:26.109Z,56.58
2023-05-28T01:53:53.997Z,57.45
2023-05-28T01:56:21.918Z,58.78
2023-05-28T01:58:49.750Z,62.32
2023-05-28T02:01:30.767Z,65.22
2023-05-28T02:03:59.683Z,65.26
2023-05-28T02:06:33.415Z,62.29
2023-05-28T02:09:02.344Z,57.04
2023-05-28T02:11:30.398Z,54.43
2023-05-28T02:13:59.551Z,54.30
2023-05-28T02:16:28.611Z,56.29
2023-05-28T02:18:56.679Z,56.05
2023-05-28T02:21:24.707Z,55.24
2023-05-28T02:23:52.612Z,57.61
2023-05-28T02:26:21.446Z,59.09
2023-05-28T02:28:49.279Z,59.16
2023-05-28T02:31:17.361Z,62.25
2023-05-28T02:33:45.243Z,63.46
2023-05-28T02:36:14.177Z,63.16
2023-05-28T02:38:43.617Z,62.04
2023-05-28T02:41:11.810Z,59.54
2023-05-28T02:43:39.759Z,57.02
2023-05-28T02:46:07.980Z,56.07
2023-05-28T02:48:36.314Z,57.06
2023-05-28T02:51:04.829Z,57.40
2023-05-28T02:53:33.385Z,58.69
2023-05-28T02:56:01.363Z,58.43
2023-05-28T02:58:33.531Z,58.11
2023-05-28T03:01:01.481Z,58.43
2023-05-28T03:03:29.736Z,58.69
2023-05-28T03:05:58.421Z,59.16
2023-05-28T03:08:26.459Z,59.47
2023-05-28T03:10:54.326Z,59.43
2023-05-28T03:13:22.283Z,59.23
2023-05-28T03:15:50.177Z,58.61
2023-05-28T03:18:18.093Z,58.91
2023-05-28T03:20:46.272Z,58.19
2023-05-28T03:23:14.207Z,57.35
2023-05-28T03:25:42.075Z,57.80
2023-05-28T03:28:09.882Z,56.75
2023-05-28T03:30:37.757Z,56.55
2023-05-28T03:33:05.965Z,55.13
2023-05-28T03:35:34.195Z,53.57
2023-05-28T03:38:02.104Z,52.53
2023-05-28T03:40:29.927Z,51.75
2023-05-28T03:42:57.750Z,50.45
2023-05-28T03:45:25.931Z,48.46
2023-05-28T03:47:53.956Z,47.61
2023-05-28T03:50:22.319Z,46.97
2023-05-28T03:52:50.393Z,45.70
2023-05-28T03:55:18.318Z,44.31
2023-05-28T03:57:46.245Z,42.49
2023-05-28T04:00:15.037Z,40.87
2023-05-28T04:02:43.168Z,39.75
2023-05-28T04:05:11.498Z,37.79
2023-05-28T04:07:39.417Z,37.21
2023-05-28T04:10:08.270Z,36.45
2023-05-28T04:12:36.283Z,35.01
2023-05-28T04:15:05.277Z,34.51
2023-05-28T04:17:33.337Z,34.46
2023-05-28T04:20:01.401Z,33.30
2023-05-28T04:22:29.446Z,33.48
2023-05-28T04:24:57.390Z,32.47
2023-05-28T04:27:25.269Z,31.96
2023-05-28T04:29:53.594Z,31.68
2023-05-28T04:32:23.895Z,31.34
2023-05-28T04:34:55.957Z,31.67
2023-05-28T04:37:26.307Z,31.18
2023-05-28T04:39:54.128Z,30.79
2023-05-28T04:42:22.158Z,30.94
2023-05-28T04:44:50.536Z,30.77
2023-05-28T04:47:18.345Z,30.47
2023-05-28T04:49:46.215Z,30.31
2023-05-28T04:52:14.331Z,29.91
2023-05-28T04:54:42.455Z,29.83
2023-05-28T04:57:11.947Z,29.78
2023-05-28T04:59:39.809Z,29.78
2023-05-28T05:02:07.921Z,29.44
2023-05-28T05:04:36.714Z,29.53
2023-05-28T05:07:05.022Z,29.88
2023-05-28T05:09:33.105Z,30.03
2023-05-28T05:12:00.943Z,30.39
2023-05-28T05:14:28.868Z,31.07
2023-05-28T05:16:56.858Z,31.79
2023-05-28T05:19:24.861Z,32.63
2023-05-28T05:21:52.915Z,33.46
2023-05-28T05:24:20.997Z,34.36
2023-05-28T05:26:48.984Z,35.00
2023-05-28T05:29:16.836Z,35.93
2023-05-28T05:31:44.858Z,36.30
2023-05-28T05:34:12.799Z,36.57
2023-05-28T05:36:40.901Z,37.11
2023-05-28T05:39:09.708Z,37.72
2023-05-28T05:41:37.625Z,38.23
2023-05-28T05:44:05.885Z,38.78
2023-05-28T05:46:33.845Z,39.12
2023-05-28T05:49:01.889Z,39.45
2023-05-28T05:51:29.796Z,39.66
2023-05-28T05:53:57.618Z,39.55
2023-05-28T05:56:27.029Z,39.43
2023-05-28T05:58:55.089Z,39.11
2023-05-28T06:01:23.532Z,38.52
2023-05-28T06:03:52.149Z,38.48
2023-05-28T06:06:20.038Z,38.84
2023-05-28T06:08:47.907Z,39.26
2023-05-28T06:11:15.953Z,39.24
2023-05-28T06:13:43.863Z,39.39
2023-05-28T06:16:12.454Z,38.96
2023-05-28T06:18:41.147Z,38.85
2023-05-28T06:21:09.177Z,38.54
2023-05-28T06:23:37.045Z,38.20
2023-05-28T06:26:06.279Z,37.92
2023-05-28T06:28:34.190Z,38.13
2023-05-28T06:31:01.983Z,38.01
2023-05-28T06:33:29.866Z,37.39
2023-05-28T06:35:57.803Z,37.35
2023-05-28T06:38:25.660Z,37.86
2023-05-28T06:40:53.460Z,37.79
2023-05-28T06:43:21.395Z,37.91
2023-05-28T06:45:49.213Z,37.75
2023-05-28T06:48:17.198Z,37.32
2023-05-28T06:50:44.970Z,37.42
2023-05-28T06:53:13.025Z,37.10
2023-05-28T06:55:42.533Z,36.60
2023-05-28T06:58:12.018Z,36.73
2023-05-28T07:00:40.081Z,36.69
2023-05-28T07:03:09.754Z,36.34
2023-05-28T07:05:38.256Z,36.30
2023-05-28T07:08:06.771Z,36.09
2023-05-28T07:10:34.682Z,35.37
2023-05-28T07:13:02.531Z,34.81
2023-05-28T07:15:30.413Z,33.89
2023-05-28T07:17:58.743Z,33.07
2023-05-28T07:20:26.800Z,33.27
2023-05-28T07:22:54.799Z,32.96
2023-05-28T07:25:22.750Z,33.00
2023-05-28T07:27:50.741Z,33.42
2023-05-28T07:30:19.204Z,33.66
2023-05-28T07:32:47.183Z,33.55
2023-05-28T07:35:15.680Z,33.45
2023-05-28T07:37:43.550Z,33.44
2023-05-28T07:40:12.135Z,33.30
2023-05-28T07:42:40.036Z,33.19
2023-05-28T07:45:08.761Z,32.78
2023-05-28T07:47:36.997Z,32.23
2023-05-28T07:50:06.098Z,31.92
2023-05-28T07:52:33.902Z,31.69
2023-05-28T07:55:04.473Z,31.38
2023-05-28T07:57:32.338Z,31.19
2023-05-28T08:00:08.101Z,31.21
2023-05-28T08:02:36.214Z,31.56
2023-05-28T08:05:04.702Z,31.94
2023-05-28T08:07:33.307Z,32.08
2023-05-28T08:10:01.269Z,32.04
2023-05-28T08:12:29.275Z,31.73
2023-05-28T08:14:58.430Z,30.78
2023-05-28T08:17:32.002Z,30.74
2023-05-28T08:20:02.303Z,30.19
2023-05-28T08:22:30.953Z,29.47
2023-05-28T08:24:59.510Z,28.76
2023-05-28T08:27:27.482Z,28.99
2023-05-28T08:29:55.891Z,29.53
2023-05-28T08:32:23.899Z,30.01
2023-05-28T08:34:52.142Z,30.24
2023-05-28T08:37:20.077Z,29.88
2023-05-28T08:39:48.008Z,30.13
2023-05-28T08:42:16.414Z,30.17
2023-05-28T08:44:44.444Z,30.14
2023-05-28T08:47:15.143Z,29.87
2023-05-28T08:49:53.265Z,29.58
2023-05-28T08:52:23.943Z,29.66
2023-05-28T08:54:52.835Z,29.52
2023-05-28T08:57:22.477Z,29.25
2023-05-28T08:59:52.064Z,29.18
2023-05-28T09:02:25.648Z,29.65
2023-05-28T09:04:54.722Z,29.49
2023-05-28T09:07:22.637Z,28.42
2023-05-28T09:09:51.491Z,27.68
2023-05-28T09:12:23.707Z,28.07
2023-05-28T09:14:54.571Z,28.31
2023-05-28T09:17:40.468Z,27.96
2023-05-28T09:20:14.002Z,28.35
2023-05-28T09:22:42.259Z,28.72
2023-05-28T09:25:10.984Z,28.29
2023-05-28T09:27:39.204Z,28.42
2023-05-28T09:30:10.852Z,28.38
2023-05-28T09:32:38.884Z,27.71
2023-05-28T09:35:08.492Z,27.72
2023-05-28T09:37:39.375Z,27.95
2023-05-28T09:40:11.588Z,28.13
2023-05-28T09:42:42.899Z,28.25
2023-05-28T09:45:18.226Z,28.51
2023-05-28T09:47:46.958Z,29.02
2023-05-28T09:50:14.990Z,28.13
2023-05-28T09:52:46.347Z,27.59
2023-05-28T09:55:21.702Z,27.62
2023-05-28T09:58:07.758Z,27.83
2023-05-28T10:00:59.142Z,28.14
2023-05-28T10:03:38.803Z,27.78
2023-05-28T10:06:19.505Z,27.83
2023-05-28T10:08:52.795Z,27.87
2023-05-28T10:11:27.950Z,27.93
2023-05-28T10:13:57.569Z,28.00
2023-05-28T10:16:27.746Z,27.51
2023-05-28T10:18:57.546Z,27.39
2023-05-28T10:21:26.218Z,27.51
2023-05-28T10:23:55.468Z,27.27
2023-05-28T10:26:26.062Z,26.92
2023-05-28T10:28:56.427Z,26.66
2023-05-28T10:31:25.534Z,26.79
2023-05-28T10:33:53.607Z,27.06
2023-05-28T10:36:21.524Z,27.40
2023-05-28T10:38:52.454Z,26.99
2023-05-28T10:41:23.031Z,27.08
2023-05-28T10:43:52.792Z,27.33
2023-05-28T10:46:26.726Z,27.21
2023-05-28T10:49:07.549Z,27.27
2023-05-28T10:52:03.198Z,26.89
2023-05-28T10:54:31.066Z,26.85
2023-05-28T10:57:21.833Z,26.84
2023-05-28T11:00:01.782Z,26.94
2023-05-28T11:02:34.886Z,26.44
2023-05-28T11:05:08.927Z,26.33
2023-05-28T11:07:40.213Z,26.60
2023-05-28T11:10:15.766Z,26.89
2023-05-28T11:12:46.576Z,27.12
2023-05-28T11:15:15.346Z,26.82
2023-05-28T11:17:46.772Z,26.43
2023-05-28T11:20:27.337Z,26.62
2023-05-28T11:22:56.846Z,26.17
2023-05-28T11:25:26.819Z,25.97
2023-05-28T11:27:55.631Z,25.90
2023-05-28T11:30:23.758Z,26.30
2023-05-28T11:32:51.847Z,26.46
2023-05-28T11:35:19.976Z,26.48
2023-05-28T11:37:48.232Z,26.16
2023-05-28T11:40:17.685Z,26.05
2023-05-28T11:42:46.424Z,25.88
2023-05-28T11:45:14.944Z,26.02
2023-05-28T11:47:47.921Z,25.96
2023-05-28T11:50:17.670Z,25.96
2023-05-28T11:52:46.855Z,25.80
2023-05-28T11:55:17.396Z,25.51
2023-05-28T11:57:56.589Z,25.87
2023-05-28T12:00:35.213Z,25.89
2023-05-28T12:03:03.844Z,25.88
2023-05-28T12:05:39.855Z,25.77
2023-05-28T12:08:08.339Z,25.96
2023-05-28T12:10:36.470Z,25.77
2023-05-28T12:13:06.725Z,25.73
2023-05-28T12:15:34.941Z,25.68
2023-05-28T12:18:04.323Z,25.00
2023-05-28T12:20:41.611Z,24.64
2023-05-28T12:23:14.254Z,24.71
2023-05-28T12:25:45.056Z,25.01
2023-05-28T12:28:14.690Z,25.17
2023-05-28T12:30:45.546Z,25.12
2023-05-28T12:33:13.807Z,25.75
2023-05-28T12:35:41.981Z,25.66
2023-05-28T12:38:10.566Z,25.68
2023-05-28T12:40:38.512Z,25.68
2023-05-28T12:43:08.907Z,25.78
2023-05-28T12:45:36.884Z,25.77
2023-05-28T12:48:05.146Z,25.32
2023-05-28T12:50:33.305Z,25.21
2023-05-28T12:53:01.460Z,26.62
2023-05-28T12:55:29.397Z,29.38
2023-05-28T12:57:57.883Z,29.65
2023-05-28T13:00:25.812Z,30.30
2023-05-28T13:02:53.819Z,30.48
2023-05-28T13:05:21.923Z,31.15
2023-05-28T13:07:49.906Z,32.17
2023-05-28T13:10:17.982Z,32.54
2023-05-28T13:12:46.398Z,32.72
2023-05-28T13:15:14.316Z,32.79
2023-05-28T13:17:42.270Z,33.14
2023-05-28T13:20:12.161Z,33.83
2023-05-28T13:22:41.581Z,34.04
2023-05-28T13:25:10.482Z,34.19
2023-05-28T13:27:38.381Z,34.41
2023-05-28T13:30:07.798Z,34.95
2023-05-28T13:32:35.812Z,35.56
2023-05-28T13:35:04.287Z,36.03
2023-05-28T13:37:34.011Z,36.09
2023-05-28T13:40:02.432Z,35.84
2023-05-28T13:42:30.410Z,35.81
2023-05-28T13:44:58.456Z,35.90
2023-05-28T13:47:27.001Z,35.85
2023-05-28T13:49:55.127Z,35.96
2023-05-28T13:52:24.406Z,36.01
2023-05-28T13:54:52.424Z,35.94
2023-05-28T13:57:21.494Z,35.87
2023-05-28T13:59:50.167Z,36.13
2023-05-28T14:02:19.414Z,36.26
2023-05-28T14:04:47.446Z,36.57
2023-05-28T14:07:16.005Z,36.88
2023-05-28T14:09:43.933Z,37.12
2023-05-28T14:12:21.941Z,37.19
2023-05-28T14:14:51.234Z,36.99
2023-05-28T14:17:19.123Z,37.24
2023-05-28T14:19:48.533Z,37.93
2023-05-28T14:22:16.812Z,37.91
2023-05-28T14:24:45.059Z,37.85
2023-05-28T14:27:13.013Z,37.82
2023-05-28T14:29:41.140Z,37.77
2023-05-28T14:32:09.020Z,37.75
2023-05-28T14:34:36.905Z,38.28
2023-05-28T14:37:04.944Z,38.38
2023-05-28T14:39:32.954Z,37.97
2023-05-28T14:42:01.281Z,38.10
2023-05-28T14:44:29.666Z,38.44
2023-05-28T14:46:58.352Z,38.42
2023-05-28T14:49:27.034Z,38.59
2023-05-28T14:51:57.024Z,38.51
2023-05-28T14:54:25.103Z,38.55
2023-05-28T14:56:53.293Z,38.98
2023-05-28T14:59:21.114Z,38.77
2023-05-28T15:01:49.095Z,38.94
2023-05-28T15:04:16.993Z,38.74
2023-05-28T15:06:44.984Z,38.88
2023-05-28T15:09:12.939Z,38.86
2023-05-28T15:11:40.891Z,38.49
2023-05-28T15:14:08.811Z,38.33
2023-05-28T15:16:36.855Z,38.63
2023-05-28T15:19:05.000Z,38.81
2023-05-28T15:21:33.237Z,38.80
2023-05-28T15:24:01.236Z,38.48
2023-05-28T15:26:29.330Z,38.32
2023-05-28T15:28:58.235Z,38.52
2023-05-28T15:31:27.454Z,38.75
2023-05-28T15:33:55.466Z,38.54
2023-05-28T15:36:24.089Z,38.68
2023-05-28T15:38:52.360Z,38.48
2023-05-28T15:41:23.193Z,38.73
2023-05-28T15:43:51.283Z,38.88
2023-05-28T15:46:19.487Z,38.97
2023-05-28T15:48:48.096Z,38.79
2023-05-28T15:51:16.185Z,38.55
2023-05-28T15:53:44.639Z,38.27
2023-05-28T15:56:12.904Z,38.13
2023-05-28T15:58:41.960Z,38.60
2023-05-28T16:01:10.758Z,38.77
2023-05-28T16:03:39.159Z,39.02
2023-05-28T16:06:07.676Z,39.35
2023-05-28T16:08:35.784Z,39.36
2023-05-28T16:11:04.490Z,39.39
2023-05-28T16:13:35.626Z,39.53
2023-05-28T16:16:05.584Z,39.73
2023-05-28T16:18:36.320Z,39.49
2023-05-28T16:21:04.654Z,39.40
2023-05-28T16:23:32.897Z,39.44
2023-05-28T16:26:02.022Z,39.21
2023-05-28T16:28:36.607Z,39.12
2023-05-28T16:31:05.873Z,39.48
2023-05-28T16:33:34.138Z,39.52
2023-05-28T16:36:02.801Z,39.58
2023-05-28T16:38:31.141Z,39.94
2023-05-28T16:40:59.349Z,40.41
2023-05-28T16:43:27.884Z,40.84
2023-05-28T16:45:59.622Z,41.26
2023-05-28T16:48:28.293Z,41.89
2023-05-28T16:50:57.296Z,42.43
2023-05-28T16:53:25.851Z,42.72
2023-05-28T16:55:55.139Z,43.27
2023-05-28T16:58:23.335Z,43.69
2023-05-28T17:00:53.126Z,44.56
2023-05-28T17:03:22.367Z,45.32
2023-05-28T17:05:51.688Z,45.45
2023-05-28T17:08:21.561Z,46.18
2023-05-28T17:10:50.047Z,46.87
2023-05-28T17:13:17.905Z,47.35
2023-05-28T17:15:45.981Z,47.35
2023-05-28T17:18:14.061Z,47.49
2023-05-28T17:20:42.409Z,48.45
2023-05-28T17:23:10.438Z,48.42
2023-05-28T17:25:38.481Z,48.20
2023-05-28T17:28:09.771Z,48.43
2023-05-28T17:30:37.797Z,48.96
2023-05-28T17:33:06.897Z,48.91
2023-05-28T17:35:34.885Z,48.57
2023-05-28T17:38:03.519Z,48.77
2023-05-28T17:40:32.092Z,49.04
2023-05-28T17:43:00.135Z,49.59
2023-05-28T17:45:28.368Z,49.42
2023-05-28T17:47:56.564Z,49.17
2023-05-28T17:50:24.427Z,49.10
2023-05-28T17:52:52.572Z,48.91
2023-05-28T17:55:23.020Z,48.55
2023-05-28T17:57:51.612Z,48.28
2023-05-28T18:00:19.905Z,48.06
2023-05-28T18:02:48.197Z,47.92
2023-05-28T18:05:16.382Z,47.95
2023-05-28T18:07:44.411Z,48.08
2023-05-28T18:10:12.959Z,48.53
2023-05-28T18:12:41.767Z,48.67
2023-05-28T18:15:10.801Z,48.83
2023-05-28T18:17:39.834Z,48.96
2023-05-28T18:20:10.485Z,49.17
2023-05-28T18:22:38.976Z,49.41
2023-05-28T18:25:08.400Z,49.56
2023-05-28T18:27:36.771Z,49.89
2023-05-28T18:30:07.420Z,50.36
2023-05-28T18:32:36.573Z,50.85
2023-05-28T18:35:05.523Z,50.72
2023-05-28T18:37:33.442Z,50.99
2023-05-28T18:40:01.894Z,51.60
2023-05-28T18:42:29.798Z,51.99
2023-05-28T18:44:58.764Z,52.28
2023-05-28T18:47:27.369Z,52.72
2023-05-28T18:49:55.550Z,53.07
2023-05-28T18:52:23.602Z,53.37
2023-05-28T18:54:53.970Z,53.73
2023-05-28T18:57:23.871Z,53.95
2023-05-28T18:59:53.805Z,54.60
2023-05-28T19:02:23.074Z,54.78
2023-05-28T19:04:59.255Z,54.82
2023-05-28T19:07:27.336Z,54.96
2023-05-28T19:09:58.613Z,55.74
2023-05-28T19:12:28.767Z,56.17
2023-05-28T19:14:59.947Z,56.85
2023-05-28T19:17:27.981Z,56.94
2023-05-28T19:19:57.033Z,57.08
2023-05-28T19:22:25.633Z,57.62
2023-05-28T19:25:01.094Z,58.58
2023-05-28T19:27:32.742Z,58.78
2023-05-28T19:30:02.975Z,59.27
2023-05-28T19:32:31.701Z,59.33
2023-05-28T19:34:59.999Z,59.83
2023-05-28T19:37:27.811Z,59.79
2023-05-28T19:39:57.209Z,60.27
2023-05-28T19:42:30.465Z,59.92
2023-05-28T19:45:00.596Z,62.75
2023-05-28T19:47:29.644Z,64.67
2023-05-28T19:50:00.609Z,62.69
2023-05-28T19:52:32.133Z,59.94
2023-05-28T19:55:01.235Z,57.34
2023-05-28T19:57:29.808Z,57.49
2023-05-28T19:59:58.917Z,57.87
2023-05-28T20:02:27.922Z,58.38
2023-05-28T20:05:00.008Z,58.97
2023-05-28T20:07:32.150Z,59.33
2023-05-28T20:10:00.127Z,60.13
2023-05-28T20:12:28.007Z,62.79
2023-05-28T20:14:55.888Z,63.87
2023-05-28T20:17:23.834Z,63.59
2023-05-28T20:19:54.082Z,62.41
2023-05-28T20:22:22.046Z,59.52
2023-05-28T20:24:49.948Z,57.19
2023-05-28T20:27:18.468Z,57.55
2023-05-28T20:29:46.271Z,58.50
2023-05-28T20:32:14.263Z,59.09
2023-05-28T20:34:42.374Z,59.61
2023-05-28T20:37:10.412Z,60.31
2023-05-28T20:39:38.837Z,62.89
2023-05-28T20:42:06.981Z,64.78
2023-05-28T20:44:36.857Z,63.59
2023-05-28T20:47:05.952Z,61.76
2023-05-28T20:49:34.705Z,59.27
2023-05-28T20:52:02.610Z,57.54
2023-05-28T20:54:30.792Z,57.89
2023-05-28T20:56:58.752Z,58.46
2023-05-28T20:59:28.122Z,59.21
2023-05-28T21:01:56.996Z,59.85
2023-05-28T21:04:25.007Z,62.52
2023-05-28T21:06:52.871Z,63.47
2023-05-28T21:09:20.801Z,62.70
2023-05-28T21:11:48.871Z,62.48
2023-05-28T21:14:16.995Z,61.99
2023-05-28T21:16:45.162Z,59.87
2023-05-28T21:19:13.032Z,57.83
2023-05-28T21:21:40.908Z,58.07
2023-05-28T21:24:08.763Z,59.11
2023-05-28T21:26:36.962Z,61.43
2023-05-28T21:29:04.856Z,63.37
2023-05-28T21:31:33.011Z,63.30
2023-05-28T21:34:00.955Z,63.72
2023-05-28T21:36:28.904Z,62.89
2023-05-28T21:38:56.865Z,62.19
2023-05-28T21:41:24.808Z,60.54
2023-05-28T21:43:54.683Z,57.75
2023-05-28T21:46:22.722Z,57.44
2023-05-28T21:48:50.720Z,58.25
2023-05-28T21:51:21.026Z,59.24
2023-05-28T21:53:48.883Z,59.92
2023-05-28T21:56:17.034Z,61.85
2023-05-28T21:58:45.304Z,63.03
2023-05-28T22:01:13.140Z,62.62
2023-05-28T22:03:41.807Z,62.44
2023-05-28T22:06:10.970Z,61.51
2023-05-28T22:08:38.929Z,60.81
2023-05-28T22:11:06.751Z,59.18
2023-05-28T22:13:34.734Z,57.84
2023-05-28T22:16:02.556Z,58.52
2023-05-28T22:18:31.898Z,59.45
2023-05-28T22:20:59.822Z,61.63
2023-05-28T22:23:27.697Z,63.93
2023-05-28T22:25:56.768Z,63.91
2023-05-28T22:28:24.779Z,62.48
2023-05-28T22:30:56.420Z,61.84
2023-05-28T22:33:25.179Z,61.86
2023-05-28T22:35:53.269Z,61.08
2023-05-28T22:38:21.256Z,58.69
2023-05-28T22:40:49.151Z,56.51
2023-05-28T22:43:17.101Z,56.61
2023-05-28T22:45:45.078Z,57.91
2023-05-28T22:48:13.036Z,58.78
2023-05-28T22:50:40.957Z,59.32
2023-05-28T22:53:10.181Z,60.18
2023-05-28T22:55:38.105Z,62.02
2023-05-28T22:58:06.842Z,63.47
2023-05-28T23:00:34.926Z,62.76
2023-05-28T23:03:02.889Z,61.86
2023-05-28T23:05:31.072Z,60.39
2023-05-28T23:07:59.915Z,60.54
2023-05-28T23:10:27.848Z,58.27
2023-05-28T23:12:55.735Z,56.61
2023-05-28T23:15:23.601Z,57.20
2023-05-28T23:17:54.878Z,57.87
2023-05-28T23:20:22.914Z,58.98
2023-05-28T23:22:51.443Z,59.45
2023-05-28T23:25:19.334Z,61.33
2023-05-28T23:27:47.188Z,63.14
2023-05-28T23:30:15.908Z,62.93
2023-05-28T23:32:43.825Z,62.09
2023-05-28T23:35:12.122Z,59.99
2023-05-28T23:37:40.191Z,58.27
2023-05-28T23:40:09.266Z,57.67
2023-05-28T23:42:37.391Z,57.95
2023-05-28T23:45:06.604Z,58.79
2023-05-28T23:47:35.396Z,59.20
2023-05-28T23:50:03.497Z,59.87
2023-05-28T23:52:31.420Z,62.38
2023-05-28T23:54:59.293Z,63.74
2023-05-28T23:57:27.255Z,63.29
2023-05-28T23:59:55.176Z,62.67
